San Francisco, CA (94117)

3:18 AM PDT on August 30, 2014 (GMT -0700)
Kite Hill | Change Station
CLOSE
Current Station
Personal Weather Station
Location: San Francisco, CA
Elevation: 312 ft
Nearby Weather Stations

Elev 312 ft 37.76 °N, 122.44 °W | Updated 56 seconds ago

Partly Cloudy
Partly Cloudy
60.1 °F
Feels Like 60.1 °F
N
0.0
Wind Variable Wind from East
Gusts 0.9 mph

Today
High -- | Low -- °F
--% Chance of Precip.
Yesterday
High -- | Low -- °F
Precip. -- in
6:38 AM 7:41 PM
Waxing Crescent, 21% visible
Pressure 29.90 in
Visibility 10.0 miles
Clouds Few 800 ft
Dew Point 58 °F
Humidity 94%
Rainfall 0.00 in
Snow Depth Not available.
UV 0 out of 12
Pollen 7.40 out of 12
Ozone Good
PM2.5 Good
Flu Activity Not available.
METAR KSFO 300956Z 30005KT 10SM FEW008 18/16 A2989 RMK AO2 SLP123 T01780161 $

More Conditions Fewer Conditions

Pressure 29.90 in
Visibility 10.0 miles
Clouds Few 800 ft
Dew Point 58 °F
Humidity 94%
Rainfall 0.00 in
Snow Depth Not available.
UV 0 out of 12
Pollen 7.40 out of 12
Ozone Good
PM2.5 Good
Flu Activity Not available.
METAR KSFO 300956Z 30005KT 10SM FEW008 18/16 A2989 RMK AO2 SLP123 T01780161 $

More Conditions Fewer Conditions

10-Day Weather Forecast

Almanac

Astronomy

Aug. 30, 2014 Rise Set
Actual Time 6:38 AM PDT 7:41 PM PDT
Civil Twilight 6:11 AM PDT 8:08 PM PDT
Nautical Twilight 5:39 AM PDT 8:40 PM PDT
Astronomical Twilight 5:05 AM PDT 9:13 PM PDT
Moon 11:25 AM PDT 10:25 PM PDT
Length of Visible Light 13h 57m
Length of Day
13h 03m
Tomorrow will be 2m 19s shorter.
Waxing Crescent, 21% of the Moon is Illuminated
Today
Waxing Crescent
Sep 2
First Quarter
Sep 8
Full
Sep 15
Last Quarter
Sep 24
New

Today's Extremes

State Highs State Lows

Community

WunderPhotos

Upload Photos

1,748,481 photos uploaded!

Nearby

Air Quality

  Air Quality AQ Index Pollutant
Yesterday Good
PM2.5
Yesterday Good
OZONE
Current Good
PM2.5
Current Good
OZONE
Saturday Good
PM2.5
Sunday Good
PM2.5
Monday Good
PM2.5
Tuesday Good
PM2.5
Wednesday Good
PM2.5

Snow Depth

Station Depth Elevation
Blue Lakes 0 in 8000 ft
Echo Peak 1 in 7800 ft
Forestdale Creek 0 in 8029 ft
Rubicon #2 0 in 7500 ft
Hagan's Meadow 1 in 8000 ft

Earthquake Activity

City Distance Mag. Time & Date
Ridgemark, California 97 miles 3.4 4:32 PM PDT
2014-08-29
The Geysers, California 75 miles 2.7 2:53 PM PDT
2014-08-29
Ridgemark, California 96 miles 3.0 2:44 PM PDT
2014-08-29
Minimum magnitude displayed is 2.5.

Coastal Water Temperatures

Place Temperature
San Francisco, CA 66.0 °F
Richmond, CA 66.9 °F
Port Chicago, CA 69.1 °F

Nearby Weather Stations